createdAt,value
2023-04-04T00:00:30.708Z,4.87
2023-04-04T00:02:57.674Z,5.40
2023-04-04T00:05:24.583Z,6.07
2023-04-04T00:07:51.421Z,9.47
2023-04-04T00:10:18.240Z,7.30
2023-04-04T00:12:45.154Z,7.17
2023-04-04T00:15:12.232Z,6.80
2023-04-04T00:17:40.126Z,7.00
2023-04-04T00:20:07.605Z,6.47
2023-04-04T00:22:34.406Z,5.73
2023-04-04T00:25:01.554Z,5.17
2023-04-04T00:27:28.382Z,6.77
2023-04-04T00:29:55.927Z,5.03
2023-04-04T00:32:22.917Z,7.17
2023-04-04T00:34:53.858Z,7.73
2023-04-04T00:37:21.877Z,5.77
2023-04-04T00:39:50.145Z,11.03
2023-04-04T00:42:17.202Z,4.97
2023-04-04T00:44:44.006Z,6.27
2023-04-04T00:47:11.320Z,8.53
2023-04-04T00:49:38.155Z,6.73
2023-04-04T00:52:07.293Z,5.33
2023-04-04T00:54:34.543Z,4.30
2023-04-04T00:57:01.911Z,6.50
2023-04-04T00:59:29.197Z,3.87
2023-04-04T01:01:56.067Z,7.43
2023-04-04T01:04:23.319Z,10.53
2023-04-04T01:06:50.358Z,5.63
2023-04-04T01:09:17.195Z,7.57
2023-04-04T01:11:44.517Z,5.67
2023-04-04T01:14:11.431Z,7.63
2023-04-04T01:16:38.558Z,9.10
2023-04-04T01:19:06.840Z,6.20
2023-04-04T01:21:33.616Z,6.10
2023-04-04T01:24:01.630Z,6.33
2023-04-04T01:26:28.792Z,6.10
2023-04-04T01:28:56.302Z,8.97
2023-04-04T01:31:36.247Z,6.73
2023-04-04T01:34:24.973Z,6.07
2023-04-04T01:37:15.177Z,6.83
2023-04-04T01:39:48.532Z,6.97
2023-04-04T01:42:17.077Z,7.03
2023-04-04T01:44:45.802Z,6.67
2023-04-04T01:47:15.947Z,5.47
2023-04-04T01:49:42.868Z,5.87
2023-04-04T01:52:12.278Z,4.27
2023-04-04T01:54:39.085Z,6.30
2023-04-04T01:57:06.352Z,6.07
2023-04-04T01:59:33.192Z,6.57
2023-04-04T02:02:00.040Z,8.90
2023-04-04T02:04:28.053Z,6.27
2023-04-04T02:06:56.794Z,6.90
2023-04-04T02:09:24.614Z,7.43
2023-04-04T02:11:51.469Z,10.97
2023-04-04T02:14:18.305Z,6.57
2023-04-04T02:16:46.236Z,9.67
2023-04-04T02:19:13.159Z,10.93
2023-04-04T02:21:39.960Z,9.43
2023-04-04T02:24:07.187Z,6.40
2023-04-04T02:26:34.037Z,8.10
2023-04-04T02:29:00.888Z,7.27
2023-04-04T02:31:27.838Z,6.03
2023-04-04T02:33:54.754Z,7.40
2023-04-04T02:36:21.628Z,11.20
2023-04-04T02:38:48.459Z,10.33
2023-04-04T02:41:15.464Z,7.17
2023-04-04T02:43:42.373Z,7.43
2023-04-04T02:46:20.357Z,6.93
2023-04-04T02:48:48.420Z,7.90
2023-04-04T02:51:15.518Z,4.90
2023-04-04T02:53:42.413Z,6.07
2023-04-04T02:56:09.235Z,7.40
2023-04-04T02:58:36.537Z,8.00
2023-04-04T03:01:03.392Z,7.37
2023-04-04T03:03:30.511Z,8.73
2023-04-04T03:05:58.412Z,9.10
2023-04-04T03:08:25.389Z,5.47
2023-04-04T03:10:52.172Z,9.77
2023-04-04T03:13:18.990Z,7.53
2023-04-04T03:15:47.459Z,7.10
2023-04-04T03:18:14.453Z,10.77
2023-04-04T03:20:41.778Z,9.70
2023-04-04T03:23:08.898Z,10.47
2023-04-04T03:25:35.769Z,7.67
2023-04-04T03:28:10.018Z,6.13
2023-04-04T03:30:36.876Z,8.73
2023-04-04T03:33:09.899Z,8.30
2023-04-04T03:35:40.714Z,10.07
2023-04-04T03:38:08.509Z,10.17
2023-04-04T03:40:35.536Z,6.23
2023-04-04T03:43:03.463Z,6.00
2023-04-04T03:45:30.400Z,13.27
2023-04-04T03:47:57.253Z,7.70
2023-04-04T03:50:25.517Z,9.53
2023-04-04T03:52:52.382Z,5.80
2023-04-04T03:55:19.283Z,9.03
2023-04-04T03:57:46.451Z,8.47
2023-04-04T04:00:13.719Z,7.60
2023-04-04T04:02:41.229Z,6.83
2023-04-04T04:05:09.215Z,7.13
2023-04-04T04:07:36.349Z,7.20
2023-04-04T04:10:03.606Z,8.37
2023-04-04T04:12:30.410Z,11.47
2023-04-04T04:14:57.309Z,6.50
2023-04-04T04:17:24.248Z,7.10
2023-04-04T04:19:51.195Z,8.00
2023-04-04T04:22:18.000Z,8.13
2023-04-04T04:24:44.786Z,9.37
2023-04-04T04:27:11.779Z,6.37
2023-04-04T04:29:39.658Z,6.97
2023-04-04T04:32:06.679Z,8.57
2023-04-04T04:34:33.536Z,12.13
2023-04-04T04:37:00.474Z,7.23
2023-04-04T04:39:27.398Z,8.60
2023-04-04T04:41:54.553Z,5.63
2023-04-04T04:44:21.461Z,6.67
2023-04-04T04:46:48.310Z,6.83
2023-04-04T04:49:15.252Z,6.23
2023-04-04T04:51:42.986Z,11.97
2023-04-04T04:54:11.153Z,13.37
2023-04-04T04:56:38.173Z,12.33
2023-04-04T04:59:07.524Z,17.13
2023-04-04T05:01:34.499Z,9.43
2023-04-04T05:04:01.356Z,11.93
2023-04-04T05:06:28.224Z,12.03
2023-04-04T05:08:55.012Z,9.93
2023-04-04T05:11:21.962Z,6.00
2023-04-04T05:13:49.005Z,6.63
2023-04-04T05:16:16.422Z,8.50
2023-04-04T05:18:43.433Z,8.87
2023-04-04T05:21:10.413Z,9.80
2023-04-04T05:23:37.509Z,13.77
2023-04-04T05:26:04.485Z,8.20
2023-04-04T05:28:31.318Z,11.00
2023-04-04T05:30:58.670Z,12.77
2023-04-04T05:33:25.622Z,8.70
2023-04-04T05:35:52.878Z,10.60
2023-04-04T05:38:19.795Z,8.27
2023-04-04T05:40:46.681Z,9.03
2023-04-04T05:43:13.650Z,7.13
2023-04-04T05:45:42.009Z,8.87
2023-04-04T05:48:09.047Z,11.07
2023-04-04T05:50:36.123Z,11.33
2023-04-04T05:53:03.115Z,5.43
2023-04-04T05:55:30.009Z,7.87
2023-04-04T05:57:57.633Z,6.70
2023-04-04T06:00:24.490Z,8.27
2023-04-04T06:02:52.915Z,7.37
2023-04-04T06:05:20.580Z,6.20
2023-04-04T06:07:47.379Z,8.13
2023-04-04T06:10:15.615Z,7.90
2023-04-04T06:12:42.464Z,9.87
2023-04-04T06:15:09.512Z,8.83
2023-04-04T06:17:36.432Z,8.60
2023-04-04T06:20:05.130Z,11.57
2023-04-04T06:22:32.112Z,8.63
2023-04-04T06:24:58.976Z,8.70
2023-04-04T06:27:25.815Z,7.90
2023-04-04T06:29:52.651Z,9.13
2023-04-04T06:32:22.459Z,9.63
2023-04-04T06:34:49.362Z,10.07
2023-04-04T06:37:17.240Z,8.40
2023-04-04T06:39:44.047Z,9.23
2023-04-04T06:42:12.523Z,9.57
2023-04-04T06:44:40.452Z,12.23
2023-04-04T06:47:07.578Z,6.93
2023-04-04T06:49:35.124Z,7.97
2023-04-04T06:52:02.140Z,8.57
2023-04-04T06:54:28.955Z,9.30
2023-04-04T06:56:55.816Z,7.93
2023-04-04T06:59:23.100Z,8.67
2023-04-04T07:01:49.963Z,8.40
2023-04-04T07:04:20.214Z,10.03
2023-04-04T07:06:47.048Z,11.77
2023-04-04T07:09:25.873Z,8.53
2023-04-04T07:11:56.094Z,11.43
2023-04-04T07:14:25.783Z,8.00
2023-04-04T07:16:55.677Z,8.07
2023-04-04T07:19:28.744Z,10.67
2023-04-04T07:21:57.022Z,7.97
2023-04-04T07:24:24.060Z,7.77
2023-04-04T07:26:50.946Z,13.93
2023-04-04T07:29:18.089Z,11.13
2023-04-04T07:31:45.126Z,9.40
2023-04-04T07:34:11.974Z,8.67
2023-04-04T07:36:38.773Z,8.60
2023-04-04T07:39:05.635Z,7.50
2023-04-04T07:41:32.555Z,11.10
2023-04-04T07:43:59.379Z,9.00
2023-04-04T07:46:30.264Z,10.80
2023-04-04T07:48:57.167Z,8.67
2023-04-04T07:51:29.494Z,8.93
2023-04-04T07:53:56.695Z,9.10
2023-04-04T07:56:23.694Z,10.60
2023-04-04T07:58:50.566Z,10.40
2023-04-04T08:01:17.497Z,8.30
2023-04-04T08:03:44.561Z,6.07
2023-04-04T08:06:11.989Z,8.60
2023-04-04T08:08:38.853Z,11.90
2023-04-04T08:11:05.728Z,11.37
2023-04-04T08:13:32.638Z,8.70
2023-04-04T08:15:59.463Z,8.73
2023-04-04T08:18:27.247Z,9.00
2023-04-04T08:20:55.351Z,10.53
2023-04-04T08:23:22.145Z,10.10
2023-04-04T08:25:49.181Z,9.70
2023-04-04T08:28:16.151Z,7.37
2023-04-04T08:30:43.087Z,10.27
2023-04-04T08:33:10.238Z,9.67
2023-04-04T08:35:37.168Z,10.17
2023-04-04T08:38:06.336Z,45.87
2023-04-04T08:40:34.829Z,8.67
2023-04-04T08:43:01.821Z,12.17
2023-04-04T08:45:28.634Z,10.70
2023-04-04T08:47:55.530Z,7.07
2023-04-04T08:50:22.806Z,8.10
2023-04-04T08:52:49.985Z,12.03
2023-04-04T08:55:16.870Z,6.53
2023-04-04T08:57:43.687Z,8.67
2023-04-04T09:00:11.162Z,6.57
2023-04-04T09:02:50.565Z,8.03
2023-04-04T09:05:17.696Z,7.07
2023-04-04T09:07:44.526Z,8.07
2023-04-04T09:10:11.924Z,8.30
2023-04-04T09:12:41.739Z,9.33
2023-04-04T09:15:09.980Z,9.70
2023-04-04T09:17:37.580Z,5.43
2023-04-04T09:20:07.692Z,6.90
2023-04-04T09:22:34.800Z,8.73
2023-04-04T09:25:01.606Z,8.97
2023-04-04T09:27:28.393Z,8.03
2023-04-04T09:29:56.336Z,9.43
2023-04-04T09:32:26.161Z,9.57
2023-04-04T09:34:52.994Z,7.77
2023-04-04T09:37:19.874Z,7.23
2023-04-04T09:39:47.142Z,12.03
2023-04-04T09:42:14.255Z,14.23
2023-04-04T09:44:41.093Z,9.30
2023-04-04T09:49:58.755Z,7.83
2023-04-04T09:52:25.603Z,9.23
2023-04-04T09:54:59.199Z,8.03
2023-04-04T09:57:29.231Z,7.67
2023-04-04T10:00:04.010Z,6.70
2023-04-04T10:02:31.930Z,7.37
2023-04-04T10:05:05.876Z,6.07
2023-04-04T10:07:33.982Z,8.13
2023-04-04T10:10:07.684Z,9.37
2023-04-04T10:12:34.760Z,6.83
2023-04-04T10:15:01.848Z,6.93
2023-04-04T10:17:36.892Z,7.10
2023-04-04T10:20:09.127Z,8.47
2023-04-04T10:22:36.707Z,8.30
2023-04-04T10:25:07.282Z,6.07
2023-04-04T10:27:34.374Z,4.33
2023-04-04T10:30:01.601Z,7.67
2023-04-04T10:32:41.143Z,3.70
2023-04-04T10:35:11.006Z,6.90
2023-04-04T10:37:50.212Z,5.97
2023-04-04T10:40:19.531Z,6.17
2023-04-04T10:42:47.569Z,6.83
2023-04-04T10:45:21.282Z,6.23
2023-04-04T10:47:48.895Z,6.97
2023-04-04T10:50:15.825Z,5.23
2023-04-04T10:52:44.337Z,6.57
2023-04-04T10:55:15.065Z,6.20
2023-04-04T10:57:51.969Z,5.70
2023-04-04T11:00:20.258Z,6.73
2023-04-04T11:02:53.073Z,7.50
2023-04-04T11:05:26.232Z,7.00
2023-04-04T11:10:33.817Z,8.43
2023-04-04T11:13:12.841Z,6.87
2023-04-04T11:15:57.966Z,10.93
2023-04-04T11:18:43.846Z,7.90
2023-04-04T11:21:24.290Z,7.80
2023-04-04T11:24:20.523Z,6.33
2023-04-04T11:26:47.582Z,9.40
2023-04-04T11:29:20.922Z,11.27
2023-04-04T11:31:49.204Z,6.73
2023-04-04T11:34:30.093Z,7.37
2023-04-04T11:36:58.066Z,6.37
2023-04-04T11:39:29.504Z,9.93
2023-04-04T11:42:05.208Z,8.63
2023-04-04T11:44:32.968Z,6.80
2023-04-04T11:47:11.539Z,7.00
2023-04-04T11:49:40.927Z,8.60
2023-04-04T11:52:12.123Z,5.13
2023-04-04T11:54:39.360Z,8.67
2023-04-04T11:57:07.521Z,7.93
2023-04-04T11:59:38.917Z,7.43
2023-04-04T12:02:05.723Z,13.23
2023-04-04T12:04:33.014Z,8.60
2023-04-04T12:07:00.438Z,10.03
2023-04-04T12:09:27.298Z,6.17
2023-04-04T12:11:54.711Z,7.73
2023-04-04T12:14:25.850Z,5.60
2023-04-04T12:16:54.482Z,5.57
2023-04-04T12:19:23.334Z,5.97
2023-04-04T12:21:51.088Z,6.90
2023-04-04T12:24:17.959Z,10.07
2023-04-04T12:26:49.070Z,8.27
2023-04-04T12:29:16.612Z,7.07
2023-04-04T12:31:44.926Z,6.30
2023-04-04T12:34:25.055Z,10.37
2023-04-04T12:36:52.931Z,6.67
2023-04-04T12:39:20.474Z,9.80
2023-04-04T12:42:01.424Z,10.13
2023-04-04T12:44:34.285Z,7.07
2023-04-04T12:47:03.291Z,8.10
2023-04-04T12:49:33.316Z,11.23
2023-04-04T12:52:04.659Z,7.73
2023-04-04T12:54:32.613Z,8.67
2023-04-04T12:56:59.977Z,11.00
2023-04-04T12:59:31.253Z,6.30
2023-04-04T13:01:58.396Z,7.03
2023-04-04T13:04:25.376Z,9.93
2023-04-04T13:06:52.636Z,4.80
2023-04-04T13:09:20.864Z,6.70
2023-04-04T13:12:03.563Z,5.67
2023-04-04T13:15:02.235Z,7.23
2023-04-04T13:17:45.508Z,6.87
2023-04-04T13:20:13.223Z,10.07
2023-04-04T13:22:40.930Z,7.90
2023-04-04T13:25:09.032Z,8.17
2023-04-04T13:27:36.562Z,5.37
2023-04-04T13:30:04.542Z,5.83
2023-04-04T13:32:31.531Z,6.40
2023-04-04T13:34:58.370Z,6.80
2023-04-04T13:37:26.389Z,9.93
2023-04-04T13:39:53.245Z,7.90
2023-04-04T13:42:20.082Z,7.83
2023-04-04T13:44:46.877Z,6.73
2023-04-04T13:47:13.848Z,7.40
2023-04-04T13:49:41.206Z,6.13
2023-04-04T13:52:08.128Z,6.37
2023-04-04T13:54:35.017Z,11.33
2023-04-04T13:57:01.811Z,8.53
2023-04-04T13:59:28.655Z,7.00
2023-04-04T14:01:55.795Z,6.20
2023-04-04T14:04:24.052Z,9.87
2023-04-04T14:06:51.340Z,5.47
2023-04-04T14:09:18.639Z,8.53
2023-04-04T14:11:46.470Z,8.63
2023-04-04T14:14:13.303Z,6.67
2023-04-04T14:16:40.380Z,6.60
2023-04-04T14:19:07.281Z,5.90
2023-04-04T14:21:34.077Z,9.73
2023-04-04T14:24:00.880Z,6.57
2023-04-04T14:26:27.737Z,6.27
2023-04-04T14:28:54.610Z,9.20
2023-04-04T14:31:21.687Z,9.57
2023-04-04T14:33:48.608Z,11.87
2023-04-04T14:36:15.634Z,6.97
2023-04-04T14:38:42.429Z,9.80
2023-04-04T14:41:09.610Z,7.00
2023-04-04T14:43:36.404Z,6.60
2023-04-04T14:46:03.223Z,7.63
2023-04-04T14:48:30.131Z,5.83
2023-04-04T14:50:57.027Z,8.50
2023-04-04T14:53:24.367Z,6.00
2023-04-04T14:55:52.796Z,9.20
2023-04-04T14:58:21.023Z,8.13
2023-04-04T15:00:48.249Z,8.30
2023-04-04T15:03:15.629Z,8.67
2023-04-04T15:05:42.714Z,6.37
2023-04-04T15:08:09.795Z,7.70
2023-04-04T15:10:36.582Z,6.70
2023-04-04T15:13:03.406Z,6.17
2023-04-04T15:15:30.237Z,9.13
2023-04-04T15:17:57.135Z,8.13
2023-04-04T15:20:24.024Z,8.23
2023-04-04T15:22:50.902Z,7.57
2023-04-04T15:25:17.702Z,8.23
2023-04-04T15:27:44.548Z,6.53
2023-04-04T15:30:12.881Z,9.07
2023-04-04T15:32:39.802Z,12.13
2023-04-04T15:35:07.675Z,7.00
2023-04-04T15:37:34.452Z,9.30
2023-04-04T15:40:01.221Z,9.30
2023-04-04T15:42:29.315Z,10.23
2023-04-04T15:44:56.481Z,8.03
2023-04-04T15:47:23.285Z,8.70
2023-04-04T15:49:50.163Z,10.17
2023-04-04T15:52:17.043Z,8.53
2023-04-04T15:54:43.827Z,14.77
2023-04-04T15:57:10.846Z,10.53
2023-04-04T15:59:37.722Z,9.57
2023-04-04T16:02:06.459Z,11.73
2023-04-04T16:04:33.612Z,9.90
2023-04-04T16:07:00.539Z,10.07
2023-04-04T16:09:27.463Z,17.87
2023-04-04T16:11:55.925Z,9.70
2023-04-04T16:14:23.541Z,11.17
2023-04-04T16:16:50.507Z,11.47
2023-04-04T16:19:17.857Z,8.37
2023-04-04T16:21:44.725Z,8.43
2023-04-04T16:24:13.097Z,10.07
2023-04-04T16:26:40.064Z,11.03
2023-04-04T16:29:06.901Z,8.23
2023-04-04T16:31:34.024Z,11.67
2023-04-04T16:34:00.914Z,9.57
2023-04-04T16:36:27.756Z,10.60
2023-04-04T16:38:55.153Z,11.43
2023-04-04T16:41:21.961Z,9.73
2023-04-04T16:43:52.556Z,10.38
2023-04-04T16:46:19.780Z,14.00
2023-04-04T16:48:46.628Z,9.27
2023-04-04T16:51:13.460Z,9.73
2023-04-04T16:53:40.279Z,10.40
2023-04-04T16:56:07.151Z,12.00
2023-04-04T16:58:33.934Z,14.03
2023-04-04T17:01:00.907Z,14.07
2023-04-04T17:03:27.722Z,11.77
2023-04-04T17:05:59.650Z,11.80
2023-04-04T17:08:26.804Z,13.53
2023-04-04T17:10:53.704Z,13.20
2023-04-04T17:13:20.582Z,15.23
2023-04-04T17:15:47.460Z,12.30
2023-04-04T17:18:14.339Z,12.07
2023-04-04T17:20:42.760Z,13.47
2023-04-04T17:23:10.505Z,15.10
2023-04-04T17:25:37.485Z,15.70
2023-04-04T17:28:04.850Z,10.80
2023-04-04T17:30:32.059Z,13.33
2023-04-04T17:32:59.025Z,11.63
2023-04-04T17:35:26.088Z,10.00
2023-04-04T17:37:53.228Z,12.87
2023-04-04T17:40:20.117Z,13.07
2023-04-04T17:42:46.947Z,13.23
2023-04-04T17:45:13.814Z,10.90
2023-04-04T17:47:40.852Z,11.17
2023-04-04T17:50:08.096Z,14.27
2023-04-04T17:52:34.918Z,14.00
2023-04-04T17:55:02.184Z,15.63
2023-04-04T17:57:29.091Z,19.37
2023-04-04T17:59:55.971Z,12.83
2023-04-04T18:02:22.795Z,12.80
2023-04-04T18:04:51.507Z,15.37
2023-04-04T18:07:19.382Z,13.73
2023-04-04T18:09:46.808Z,13.80
2023-04-04T18:12:13.674Z,13.63
2023-04-04T18:14:40.560Z,14.27
2023-04-04T18:17:07.465Z,9.90
2023-04-04T18:19:35.153Z,14.00
2023-04-04T18:22:02.027Z,13.60
2023-04-04T18:24:28.920Z,12.77
2023-04-04T18:26:56.667Z,13.03
2023-04-04T18:29:25.204Z,13.90
2023-04-04T18:31:52.200Z,10.50
2023-04-04T18:34:20.057Z,14.33
2023-04-04T18:36:49.460Z,15.60
2023-04-04T18:39:18.532Z,15.63
2023-04-04T18:41:46.421Z,13.37
2023-04-04T18:44:13.281Z,14.27
2023-04-04T18:46:40.586Z,14.17
2023-04-04T18:49:07.920Z,16.03
2023-04-04T18:51:34.790Z,15.00
2023-04-04T18:54:02.005Z,13.03
2023-04-04T18:56:28.843Z,14.93
2023-04-04T18:58:55.925Z,12.43
2023-04-04T19:01:23.464Z,11.67
2023-04-04T19:03:55.393Z,14.87
2023-04-04T19:06:26.065Z,11.80
2023-04-04T19:08:52.979Z,17.27
2023-04-04T19:11:20.196Z,14.37
2023-04-04T19:13:47.031Z,14.93
2023-04-04T19:16:13.940Z,13.37
2023-04-04T19:18:40.873Z,14.43
2023-04-04T19:21:09.421Z,12.30
2023-04-04T19:23:37.227Z,15.17
2023-04-04T19:26:04.068Z,15.47
2023-04-04T19:28:31.050Z,15.73
2023-04-04T19:30:59.041Z,16.23
2023-04-04T19:33:26.780Z,12.43
2023-04-04T19:35:54.669Z,12.27
2023-04-04T19:38:25.880Z,14.93
2023-04-04T19:41:03.593Z,17.70
2023-04-04T19:43:30.604Z,21.47
2023-04-04T19:45:58.796Z,13.07
2023-04-04T19:48:44.472Z,12.80
2023-04-04T19:51:17.300Z,17.27
2023-04-04T19:53:47.596Z,17.37
2023-04-04T19:56:21.311Z,13.43
2023-04-04T19:58:49.285Z,15.63
2023-04-04T20:01:20.906Z,14.10
2023-04-04T20:03:47.723Z,14.10
2023-04-04T20:06:27.645Z,15.67
2023-04-04T20:09:01.715Z,17.97
2023-04-04T20:11:30.292Z,14.83
2023-04-04T20:14:01.369Z,20.30
2023-04-04T20:16:29.475Z,17.47
2023-04-04T20:19:00.573Z,15.30
2023-04-04T20:21:28.679Z,16.47
2023-04-04T20:23:57.809Z,17.33
2023-04-04T20:26:43.758Z,18.40
2023-04-04T20:29:15.461Z,17.17
2023-04-04T20:31:43.294Z,13.47
2023-04-04T20:34:38.751Z,19.80
2023-04-04T20:37:08.040Z,14.37
2023-04-04T20:39:44.001Z,16.63
2023-04-04T20:42:29.457Z,13.57
2023-04-04T20:45:19.812Z,16.10
2023-04-04T20:47:46.737Z,19.93
2023-04-04T20:50:16.742Z,14.03
2023-04-04T20:52:50.530Z,15.43
2023-04-04T20:55:25.401Z,18.33
2023-04-04T20:57:53.821Z,15.53
2023-04-04T21:00:29.811Z,16.57
2023-04-04T21:02:58.070Z,15.57
2023-04-04T21:05:35.609Z,21.13
2023-04-04T21:08:02.881Z,19.40
2023-04-04T21:10:29.627Z,18.30
2023-04-04T21:12:56.621Z,18.10
2023-04-04T21:15:29.160Z,20.53
2023-04-04T21:17:58.138Z,16.70
2023-04-04T21:20:49.753Z,17.27
2023-04-04T21:23:28.109Z,15.27
2023-04-04T21:26:03.267Z,17.30
2023-04-04T21:28:42.895Z,15.07
2023-04-04T21:31:14.451Z,14.70
2023-04-04T21:33:48.656Z,18.33
2023-04-04T21:36:24.643Z,15.77
2023-04-04T21:38:51.984Z,19.07
2023-04-04T21:41:18.803Z,16.73
2023-04-04T21:43:45.976Z,16.33
2023-04-04T21:46:12.940Z,20.20
2023-04-04T21:48:39.761Z,18.73
2023-04-04T21:51:06.568Z,17.00
2023-04-04T21:53:33.424Z,15.33
2023-04-04T21:56:00.402Z,15.97
2023-04-04T21:58:27.233Z,17.10
2023-04-04T22:00:54.019Z,19.20
2023-04-04T22:03:20.906Z,18.73
2023-04-04T22:05:48.355Z,16.03
2023-04-04T22:08:15.304Z,20.83
2023-04-04T22:10:50.180Z,16.37
2023-04-04T22:13:19.965Z,17.97
2023-04-04T22:15:47.103Z,17.10
2023-04-04T22:18:17.335Z,17.33
2023-04-04T22:20:47.995Z,20.37
2023-04-04T22:23:17.785Z,21.50
2023-04-04T22:25:44.703Z,17.30
2023-04-04T22:28:11.544Z,22.10
2023-04-04T22:30:42.564Z,22.90
2023-04-04T22:33:09.733Z,19.97
2023-04-04T22:35:36.919Z,18.53
2023-04-04T22:38:04.208Z,23.53
2023-04-04T22:40:32.767Z,23.27
2023-04-04T22:43:01.457Z,19.97
2023-04-04T22:45:29.788Z,20.27
2023-04-04T22:47:58.014Z,24.47
2023-04-04T22:50:25.113Z,18.13
2023-04-04T22:52:54.767Z,23.73
2023-04-04T22:55:23.202Z,24.57
2023-04-04T22:57:50.505Z,21.30
2023-04-04T23:00:17.536Z,21.33
2023-04-04T23:02:46.113Z,21.13
2023-04-04T23:05:17.033Z,23.30
2023-04-04T23:07:44.301Z,20.10
2023-04-04T23:10:12.411Z,20.33
2023-04-04T23:12:39.318Z,25.43
2023-04-04T23:15:08.191Z,21.87
2023-04-04T23:17:35.492Z,22.70
2023-04-04T23:20:02.541Z,19.10
2023-04-04T23:22:29.499Z,29.27
2023-04-04T23:24:56.473Z,29.20
2023-04-04T23:27:23.308Z,29.67
2023-04-04T23:29:50.872Z,25.47
2023-04-04T23:32:17.671Z,23.93
2023-04-04T23:34:44.619Z,24.47
2023-04-04T23:37:11.547Z,29.83
2023-04-04T23:39:38.334Z,23.63
2023-04-04T23:42:05.357Z,30.13
2023-04-04T23:44:33.437Z,21.47
2023-04-04T23:47:00.283Z,25.97
2023-04-04T23:49:27.099Z,26.40
2023-04-04T23:51:53.906Z,29.77
2023-04-04T23:54:20.848Z,28.20
2023-04-04T23:56:47.695Z,27.07
2023-04-04T23:59:14.513Z,26.63
